Hlavní strana
METAR-TAF:

METAR-TAF

Letiště :

Laupheim, Německo

zeměpisná šířka: 48-13N, zeměpisná délka: 009-55E, výška: 538 m

Aktuální stav počasí

Zpráva byla vytvořena před 54 minutami, v 16:20 UTC
Východoseverovýchodní vítr 8 kt
Teplota 4°C
Vlhkost vzduchu 65%
Tlak 1025 hPa
Viditelnost 10 km a více

METAR: ETHL 171620Z 06008KT 9999 04/M02 Q1025 BLU+

Čas: 18:14 (17:14 UTC)

Předpověď počasí

Zpráva byla vytvořena před 30 hodinami a 43 minutami, v 10:31 UTC
Předpověď platná od 16 v 10 UTC do 16 v 18 UTC
Východní vítr 8 kt
Viditelnost: 8000 m
Oblačno až skoro zataženo ve výšce 800 ft
kouřmo
Dočasný
od 16 v 10 UTC do 16 v 11 UTC
Východoseverovýchodní vítr 7 kt
Viditelnost: 5000 m
Oblačno až skoro zataženo ve výšce 500 ft
kouřmo
Změna
od 16 v 11 UTC do 16 v 13 UTC
Východní vítr 10 kt
Viditelnost: 1100 m
Polojasno ve výšce 1000 ft

TAF: ETHL 161031Z 1610/1618 08008KT 8000 BR BKN008 TEMPO 1610/1611 07007KT 5000 BR BKN005 BECMG 1611/1613 08010KT 8000 NSW SCT010 CANCEL 1100

Stav a předpovědi počasí z více než 4 000 letišť (zprávy METAR a TAF).

Červené a žluté tečky na mapě představují dostupné meteorologické stanice.

Když kurzor umístíte na tečku, zobrazí se název stanice.

Pak kliknutím zobrazíte stav a předpověď počasí.

Chcete-li změnit mapu, kliknutím na zelené tlačítko se znaménkem +mapu přiblížíte, kliknutím na zelené tlačítko se znaménkem – mapu oddálíte a kliknutím na zelené šipky přejdete na sousední mapy.


METAR-TAF: